createdAt,value
2022-09-28T00:02:22.039Z,90.90
2022-09-28T00:04:49.015Z,90.80
2022-09-28T00:07:15.705Z,91.00
2022-09-28T00:09:53.014Z,91.00
2022-09-28T00:12:20.719Z,91.00
2022-09-28T00:14:47.422Z,91.00
2022-09-28T00:17:16.151Z,90.80
2022-09-28T00:19:44.052Z,91.00
2022-09-28T00:22:10.805Z,90.70
2022-09-28T00:24:37.604Z,90.80
2022-09-28T00:27:04.400Z,91.10
2022-09-28T00:29:35.246Z,90.90
2022-09-28T00:32:04.835Z,91.00
2022-09-28T00:34:35.998Z,91.10
2022-09-28T00:37:03.535Z,91.10
2022-09-28T00:39:33.356Z,90.90
2022-09-28T00:42:00.070Z,90.80
2022-09-28T00:44:26.773Z,91.10
2022-09-28T00:46:58.525Z,90.50
2022-09-28T00:49:33.406Z,90.90
2022-09-28T00:52:00.375Z,90.80
2022-09-28T00:54:27.235Z,91.00
2022-09-28T00:56:54.020Z,90.80
2022-09-28T00:59:24.432Z,90.80
2022-09-28T01:01:51.310Z,90.70
2022-09-28T01:04:18.126Z,91.10
2022-09-28T01:06:45.483Z,90.90
2022-09-28T01:09:13.233Z,90.70
2022-09-28T01:11:40.033Z,90.50
2022-09-28T01:14:07.622Z,90.70
2022-09-28T01:16:45.428Z,90.60
2022-09-28T01:19:18.331Z,90.60
2022-09-28T01:21:45.065Z,90.90
2022-09-28T01:24:24.061Z,90.70
2022-09-28T01:26:57.045Z,90.70
2022-09-28T01:29:35.881Z,90.80
2022-09-28T01:32:15.054Z,90.70
2022-09-28T01:34:46.055Z,90.90
2022-09-28T01:37:14.172Z,90.50
2022-09-28T01:39:43.421Z,90.90
2022-09-28T01:42:22.264Z,90.70
2022-09-28T01:44:50.583Z,90.60
2022-09-28T01:47:20.280Z,90.70
2022-09-28T01:49:59.515Z,90.70
2022-09-28T01:52:36.447Z,90.90
2022-09-28T01:55:17.632Z,90.60
2022-09-28T01:58:04.575Z,90.70
2022-09-28T02:00:32.541Z,90.80
2022-09-28T02:03:12.476Z,90.60
2022-09-28T02:05:40.743Z,90.70
2022-09-28T02:08:09.590Z,90.60
2022-09-28T02:10:56.580Z,90.90
2022-09-28T02:13:27.988Z,90.70
2022-09-28T02:15:59.124Z,90.70
2022-09-28T02:18:25.860Z,90.60
2022-09-28T02:20:56.409Z,90.60
2022-09-28T02:23:24.514Z,90.70
2022-09-28T02:25:53.717Z,90.90
2022-09-28T02:28:20.458Z,90.60
2022-09-28T02:30:47.201Z,90.70
2022-09-28T02:33:18.989Z,90.90
2022-09-28T02:35:46.023Z,90.80
2022-09-28T02:38:13.636Z,90.80
2022-09-28T02:40:42.967Z,90.70
2022-09-28T02:43:12.442Z,90.70
2022-09-28T02:45:42.382Z,90.50
2022-09-28T02:48:15.312Z,90.70
2022-09-28T02:50:47.136Z,90.80
2022-09-28T02:53:13.844Z,90.80
2022-09-28T02:55:49.882Z,90.90
2022-09-28T02:58:16.617Z,90.60
2022-09-28T03:00:57.439Z,90.60
2022-09-28T03:03:31.401Z,90.90
2022-09-28T03:06:02.433Z,90.80
2022-09-28T03:08:31.055Z,90.50
2022-09-28T03:11:23.933Z,90.90
2022-09-28T03:13:51.037Z,90.60
2022-09-28T03:16:18.962Z,90.70
2022-09-28T03:18:46.180Z,90.90
2022-09-28T03:21:13.626Z,90.70
2022-09-28T03:23:40.383Z,90.70
2022-09-28T03:26:13.499Z,90.60
2022-09-28T03:28:40.283Z,90.60
2022-09-28T03:31:07.278Z,90.60
2022-09-28T03:33:34.195Z,90.60
2022-09-28T03:36:00.964Z,90.60
2022-09-28T03:38:27.690Z,90.70
2022-09-28T03:40:54.985Z,90.80
2022-09-28T03:43:22.087Z,90.80
2022-09-28T03:45:53.140Z,90.60
2022-09-28T03:48:27.642Z,90.80
2022-09-28T03:50:57.440Z,90.60
2022-09-28T03:53:24.603Z,90.70
2022-09-28T03:55:53.230Z,90.50
2022-09-28T03:58:21.017Z,90.80
2022-09-28T04:00:48.410Z,90.60
2022-09-28T04:03:15.156Z,90.80
2022-09-28T04:05:51.916Z,90.50
2022-09-28T04:08:18.760Z,90.70
2022-09-28T04:10:45.658Z,90.50
2022-09-28T04:13:12.707Z,90.60
2022-09-28T04:15:39.568Z,90.70
2022-09-28T04:18:10.707Z,90.60
2022-09-28T04:20:37.687Z,90.60
2022-09-28T04:23:04.375Z,90.70
2022-09-28T04:25:31.067Z,91.00
2022-09-28T04:28:16.204Z,90.60
2022-09-28T04:30:42.937Z,90.70
2022-09-28T04:33:09.635Z,90.60
2022-09-28T04:35:37.080Z,90.90
2022-09-28T04:38:03.861Z,90.50
2022-09-28T04:40:30.598Z,90.60
2022-09-28T04:42:57.392Z,90.50
2022-09-28T04:45:26.282Z,90.70
2022-09-28T04:47:53.130Z,90.80
2022-09-28T04:50:19.842Z,90.30
2022-09-28T04:52:46.572Z,90.50
2022-09-28T04:55:14.442Z,90.70
2022-09-28T04:57:41.324Z,90.40
2022-09-28T05:00:09.323Z,90.20
2022-09-28T05:02:36.112Z,90.50
2022-09-28T05:05:03.002Z,90.20
2022-09-28T05:07:31.252Z,90.70
2022-09-28T05:09:58.057Z,90.30
2022-09-28T05:12:24.803Z,90.80
2022-09-28T05:14:51.484Z,90.60
2022-09-28T05:17:26.230Z,90.50
2022-09-28T05:20:00.645Z,90.60
2022-09-28T05:22:27.365Z,90.90
2022-09-28T05:24:54.990Z,90.60
2022-09-28T05:27:21.711Z,91.00
2022-09-28T05:29:48.459Z,90.50
2022-09-28T05:32:16.819Z,90.80
2022-09-28T05:34:43.643Z,90.90
2022-09-28T05:37:10.309Z,90.60
2022-09-28T05:39:37.010Z,90.70
2022-09-28T05:42:03.748Z,90.40
2022-09-28T05:44:30.444Z,90.60
2022-09-28T05:46:57.099Z,90.60
2022-09-28T05:49:23.843Z,90.80
2022-09-28T05:51:50.626Z,90.40
2022-09-28T05:54:17.439Z,90.40
2022-09-28T05:56:44.386Z,90.40
2022-09-28T05:59:12.153Z,90.70
2022-09-28T06:01:38.979Z,90.60
2022-09-28T06:04:05.800Z,90.60
2022-09-28T06:06:32.501Z,90.30
2022-09-28T06:08:59.180Z,90.20
2022-09-28T06:11:27.077Z,90.50
2022-09-28T06:13:54.920Z,90.60
2022-09-28T06:16:21.685Z,90.40
2022-09-28T06:18:48.560Z,90.30
2022-09-28T06:21:15.490Z,90.40
2022-09-28T06:23:46.881Z,90.50
2022-09-28T06:26:16.542Z,90.40
2022-09-28T06:28:43.258Z,90.80
2022-09-28T06:31:10.110Z,90.70
2022-09-28T06:33:37.574Z,90.70
2022-09-28T06:36:04.492Z,90.60
2022-09-28T06:38:31.159Z,90.50
2022-09-28T06:40:58.038Z,91.10
2022-09-28T06:43:24.760Z,90.50
2022-09-28T06:45:52.484Z,90.30
2022-09-28T06:48:19.353Z,90.60
2022-09-28T06:50:47.476Z,90.50
2022-09-28T06:53:14.768Z,90.60
2022-09-28T06:55:42.367Z,90.80
2022-09-28T06:58:13.294Z,90.90
2022-09-28T07:00:40.528Z,90.50
2022-09-28T07:03:09.318Z,90.50
2022-09-28T07:05:37.130Z,90.80
2022-09-28T07:08:04.462Z,90.50
2022-09-28T07:10:32.197Z,90.50
2022-09-28T07:13:02.564Z,90.60
2022-09-28T07:15:29.599Z,90.30
2022-09-28T07:18:02.528Z,90.50
2022-09-28T07:20:30.632Z,90.40
2022-09-28T07:23:07.908Z,90.30
2022-09-28T07:25:40.891Z,90.60
2022-09-28T07:28:09.516Z,90.50
2022-09-28T07:30:36.256Z,90.40
2022-09-28T07:33:04.016Z,90.60
2022-09-28T07:35:32.243Z,90.60
2022-09-28T07:38:00.439Z,90.20
2022-09-28T07:40:48.385Z,90.40
2022-09-28T07:43:17.093Z,90.60
2022-09-28T07:45:44.195Z,90.50
2022-09-28T07:50:38.561Z,90.30
2022-09-28T07:53:05.251Z,90.30
2022-09-28T07:55:32.019Z,89.70
2022-09-28T07:58:02.027Z,89.60
2022-09-28T08:00:33.985Z,88.60
2022-09-28T08:03:04.384Z,89.30
2022-09-28T08:05:32.081Z,90.00
2022-09-28T08:07:59.763Z,89.70
2022-09-28T08:10:26.854Z,90.00
2022-09-28T08:12:54.953Z,90.10
2022-09-28T08:15:21.862Z,90.00
2022-09-28T08:17:48.998Z,90.10
2022-09-28T08:20:48.107Z,90.20
2022-09-28T08:23:17.826Z,89.90
2022-09-28T08:25:49.151Z,89.90
2022-09-28T08:28:17.675Z,89.80
2022-09-28T08:30:45.348Z,89.40
2022-09-28T08:33:15.158Z,90.00
2022-09-28T08:35:42.046Z,90.00
2022-09-28T08:38:09.006Z,89.50
2022-09-28T08:40:43.171Z,89.80
2022-09-28T08:43:19.852Z,89.80
2022-09-28T08:45:46.614Z,89.50
2022-09-28T08:48:49.018Z,90.00
2022-09-28T08:51:27.266Z,89.20
2022-09-28T08:53:53.956Z,89.30
2022-09-28T08:56:39.291Z,89.30
2022-09-28T08:59:11.564Z,89.70
2022-09-28T09:01:40.605Z,90.10
2022-09-28T09:04:08.125Z,89.70
2022-09-28T09:06:53.544Z,90.00
2022-09-28T09:09:32.519Z,90.00
2022-09-28T09:12:08.317Z,90.00
2022-09-28T09:14:47.835Z,89.90
2022-09-28T09:17:20.520Z,90.10
2022-09-28T09:19:54.761Z,89.90
2022-09-28T09:22:40.914Z,90.10
2022-09-28T09:25:21.812Z,90.30
2022-09-28T09:27:51.292Z,90.10
2022-09-28T09:30:20.566Z,90.20
2022-09-28T09:32:53.346Z,90.10
2022-09-28T09:35:30.825Z,90.20
2022-09-28T09:37:58.687Z,90.40
2022-09-28T09:40:37.471Z,90.30
2022-09-28T09:43:10.352Z,90.60
2022-09-28T09:45:55.762Z,90.10
2022-09-28T09:48:22.576Z,90.40
2022-09-28T09:50:51.555Z,90.40
2022-09-28T09:53:26.938Z,90.40
2022-09-28T09:55:57.326Z,90.20
2022-09-28T09:58:29.943Z,90.50
2022-09-28T10:01:01.024Z,90.70
2022-09-28T10:03:33.095Z,90.50
2022-09-28T10:06:12.222Z,90.30
2022-09-28T10:08:41.914Z,90.60
2022-09-28T10:11:12.742Z,90.30
2022-09-28T10:13:40.360Z,90.60
2022-09-28T10:16:07.593Z,90.70
2022-09-28T10:18:34.835Z,90.50
2022-09-28T10:21:01.774Z,90.50
2022-09-28T10:23:34.076Z,90.50
2022-09-28T10:26:03.992Z,90.90
2022-09-28T10:28:43.065Z,90.30
2022-09-28T10:31:28.335Z,90.80
2022-09-28T10:33:57.696Z,90.80
2022-09-28T10:36:26.281Z,90.70
2022-09-28T10:38:54.027Z,90.60
2022-09-28T10:41:21.945Z,90.60
2022-09-28T10:44:08.821Z,90.60
2022-09-28T10:46:36.402Z,90.80
2022-09-28T10:49:04.790Z,90.90
2022-09-28T10:51:43.912Z,90.40
2022-09-28T10:54:18.193Z,90.50
2022-09-28T10:56:45.922Z,90.70
2022-09-28T10:59:30.643Z,90.90
2022-09-28T11:02:20.821Z,91.00
2022-09-28T11:04:53.001Z,90.70
2022-09-28T11:07:20.925Z,90.70
2022-09-28T11:09:48.876Z,90.70
2022-09-28T11:12:18.438Z,90.80
2022-09-28T11:14:46.418Z,90.80
2022-09-28T11:17:17.580Z,90.80
2022-09-28T11:19:44.692Z,90.90
2022-09-28T11:22:26.227Z,90.50
2022-09-28T11:25:12.138Z,91.00
2022-09-28T11:27:39.022Z,90.30
2022-09-28T11:30:06.126Z,90.60
2022-09-28T11:32:42.017Z,91.00
2022-09-28T11:35:16.377Z,90.90
2022-09-28T11:37:46.142Z,90.70
2022-09-28T11:40:16.129Z,90.70
2022-09-28T11:42:52.008Z,90.80
2022-09-28T11:45:18.678Z,90.60
2022-09-28T11:47:56.382Z,90.90
2022-09-28T11:51:02.063Z,90.70
2022-09-28T11:53:37.150Z,90.80
2022-09-28T11:56:08.015Z,90.70
2022-09-28T11:58:39.587Z,90.70
2022-09-28T12:01:18.702Z,91.00
2022-09-28T12:03:50.744Z,90.60
2022-09-28T12:06:23.992Z,90.90
2022-09-28T12:08:56.428Z,91.00
2022-09-28T12:11:23.139Z,90.80
2022-09-28T12:13:52.504Z,90.80
2022-09-28T12:16:53.561Z,90.90
2022-09-28T12:19:20.897Z,90.70
2022-09-28T12:21:51.460Z,90.80
2022-09-28T12:24:36.802Z,90.90
2022-09-28T12:27:06.487Z,91.10
2022-09-28T12:30:08.708Z,91.00
2022-09-28T12:32:41.594Z,90.80
2022-09-28T12:35:16.041Z,91.10
2022-09-28T12:37:42.982Z,90.60
2022-09-28T12:40:09.741Z,91.10
2022-09-28T12:42:41.136Z,90.80
2022-09-28T12:45:23.586Z,90.90
2022-09-28T12:48:08.204Z,91.00
2022-09-28T12:50:57.508Z,90.90
2022-09-28T12:53:34.105Z,91.10
2022-09-28T12:56:03.469Z,90.70
2022-09-28T12:58:30.143Z,90.90
2022-09-28T13:01:09.015Z,91.00
2022-09-28T13:03:38.439Z,90.80
2022-09-28T13:06:15.879Z,90.90
2022-09-28T13:08:48.687Z,90.90
2022-09-28T13:11:21.690Z,91.00
2022-09-28T13:14:03.057Z,91.20
2022-09-28T13:16:41.754Z,91.40
2022-09-28T13:19:13.812Z,90.90
2022-09-28T13:21:40.904Z,91.10
2022-09-28T13:24:31.005Z,91.00
2022-09-28T13:26:59.680Z,91.20
2022-09-28T13:29:27.195Z,91.20
2022-09-28T13:31:55.024Z,91.00
2022-09-28T13:34:23.117Z,90.70
2022-09-28T13:37:09.227Z,91.20
2022-09-28T13:39:45.017Z,90.90
2022-09-28T13:42:20.961Z,91.10
2022-09-28T13:45:17.149Z,91.20
2022-09-28T13:47:50.045Z,91.10
2022-09-28T13:50:35.596Z,90.90
2022-09-28T13:53:19.290Z,91.50
2022-09-28T13:56:04.549Z,91.30
2022-09-28T13:58:33.235Z,91.30
2022-09-28T14:01:03.511Z,91.30
2022-09-28T14:03:49.018Z,91.20
2022-09-28T14:06:23.063Z,90.90
2022-09-28T14:08:52.682Z,91.10
2022-09-28T14:11:34.930Z,91.00
2022-09-28T14:14:09.142Z,91.40
2022-09-28T14:16:36.280Z,91.30
2022-09-28T14:19:08.942Z,91.10
2022-09-28T14:22:14.334Z,91.20
2022-09-28T14:24:46.368Z,90.70
2022-09-28T14:27:13.070Z,91.00
2022-09-28T14:29:40.201Z,91.20
2022-09-28T14:32:09.703Z,91.00
2022-09-28T14:34:38.147Z,91.20
2022-09-28T14:37:34.815Z,91.40
2022-09-28T14:40:27.081Z,90.80
2022-09-28T14:43:13.950Z,91.10
2022-09-28T14:45:44.312Z,91.30
2022-09-28T14:48:15.435Z,91.40
2022-09-28T14:50:42.521Z,91.40
2022-09-28T14:53:27.353Z,90.90
2022-09-28T14:55:55.688Z,91.60
2022-09-28T14:58:27.620Z,91.10
2022-09-28T15:01:06.631Z,91.40
2022-09-28T15:03:34.486Z,90.80
2022-09-28T15:06:01.667Z,91.20
2022-09-28T15:08:38.700Z,91.50
2022-09-28T15:11:06.211Z,91.00
2022-09-28T15:13:32.938Z,91.40
2022-09-28T15:16:03.830Z,91.20
2022-09-28T15:18:43.874Z,91.30
2022-09-28T15:21:11.598Z,91.00
2022-09-28T15:23:39.717Z,91.20
2022-09-28T15:26:08.537Z,91.50
2022-09-28T15:28:36.789Z,91.40
2022-09-28T15:31:04.914Z,91.20
2022-09-28T15:33:51.809Z,91.40
2022-09-28T15:36:29.680Z,91.30
2022-09-28T15:39:19.896Z,91.20
2022-09-28T15:41:48.104Z,91.00
2022-09-28T15:44:14.894Z,91.00
2022-09-28T15:46:44.268Z,91.00
2022-09-28T15:49:23.016Z,91.30
2022-09-28T15:51:52.292Z,91.20
2022-09-28T15:54:27.541Z,91.20
2022-09-28T15:57:02.724Z,91.20
2022-09-28T15:59:30.757Z,91.00
2022-09-28T16:02:08.036Z,91.00
2022-09-28T16:04:38.864Z,90.90
2022-09-28T16:07:17.842Z,91.40
2022-09-28T16:09:54.984Z,91.10
2022-09-28T16:12:22.140Z,91.40
2022-09-28T16:14:51.271Z,91.40
2022-09-28T16:17:31.508Z,91.20
2022-09-28T16:20:03.248Z,91.60
2022-09-28T16:22:32.806Z,91.00
2022-09-28T16:25:00.894Z,91.40
2022-09-28T16:27:40.195Z,91.30
2022-09-28T16:30:12.919Z,91.50
2022-09-28T16:32:53.539Z,91.20
2022-09-28T16:35:22.152Z,91.30
2022-09-28T16:38:00.907Z,91.60
2022-09-28T16:40:27.968Z,91.40
2022-09-28T16:42:57.389Z,91.20
2022-09-28T16:45:24.425Z,91.30
2022-09-28T16:47:52.395Z,91.40
2022-09-28T16:50:20.538Z,91.50
2022-09-28T16:53:08.203Z,91.50
2022-09-28T16:55:40.691Z,91.30
2022-09-28T16:58:08.395Z,91.20
2022-09-28T17:00:35.142Z,91.40
2022-09-28T17:03:04.110Z,91.40
2022-09-28T17:05:30.952Z,91.10
2022-09-28T17:08:01.732Z,91.50
2022-09-28T17:10:45.089Z,91.50
2022-09-28T17:13:26.975Z,91.60
2022-09-28T17:15:53.957Z,91.60
2022-09-28T17:18:20.858Z,91.40
2022-09-28T17:20:49.035Z,91.50
2022-09-28T17:23:16.289Z,91.40
2022-09-28T17:25:43.680Z,91.20
2022-09-28T17:28:16.552Z,91.50
2022-09-28T17:30:43.353Z,91.50
2022-09-28T17:33:10.090Z,91.30
2022-09-28T17:35:39.886Z,91.30
2022-09-28T17:38:06.622Z,91.60
2022-09-28T17:40:33.387Z,91.50
2022-09-28T17:43:00.573Z,91.60
2022-09-28T17:45:28.500Z,91.30
2022-09-28T17:47:55.777Z,91.60
2022-09-28T17:50:24.519Z,91.50
2022-09-28T17:52:53.186Z,91.50
2022-09-28T17:55:20.764Z,91.60
2022-09-28T17:57:47.779Z,91.50
2022-09-28T18:00:15.885Z,91.70
2022-09-28T18:02:45.515Z,91.40
2022-09-28T18:05:15.406Z,91.50
2022-09-28T18:07:47.292Z,91.30
2022-09-28T18:10:16.787Z,91.60
2022-09-28T18:12:43.669Z,91.60
2022-09-28T18:15:10.605Z,91.50
2022-09-28T18:17:37.678Z,91.50
2022-09-28T18:20:05.386Z,91.70
2022-09-28T18:22:32.889Z,91.60
2022-09-28T18:25:01.559Z,91.60
2022-09-28T18:27:36.377Z,91.70
2022-09-28T18:30:05.583Z,91.60
2022-09-28T18:32:33.932Z,91.60
2022-09-28T18:35:07.127Z,91.50
2022-09-28T18:37:38.491Z,91.50
2022-09-28T18:40:05.815Z,91.50
2022-09-28T18:42:36.409Z,91.10
2022-09-28T18:45:07.941Z,91.60
2022-09-28T18:47:35.032Z,91.60
2022-09-28T18:50:01.919Z,91.50
2022-09-28T18:52:28.677Z,91.40
2022-09-28T18:54:55.433Z,91.60
2022-09-28T18:57:22.786Z,91.40
2022-09-28T18:59:49.517Z,91.20
2022-09-28T19:02:16.418Z,91.70
2022-09-28T19:04:43.347Z,91.40
2022-09-28T19:07:10.127Z,91.40
2022-09-28T19:09:36.860Z,91.40
2022-09-28T19:12:03.702Z,91.60
2022-09-28T19:14:30.432Z,91.40
2022-09-28T19:16:57.169Z,91.50
2022-09-28T19:19:23.947Z,91.50
2022-09-28T19:21:50.726Z,91.50
2022-09-28T19:24:18.246Z,91.60
2022-09-28T19:26:46.650Z,91.20
2022-09-28T19:29:13.790Z,91.50
2022-09-28T19:31:40.914Z,91.40
2022-09-28T19:34:10.511Z,91.40
2022-09-28T19:36:40.136Z,91.40
2022-09-28T19:39:07.823Z,91.60
2022-09-28T19:41:43.489Z,91.40
2022-09-28T19:44:24.942Z,91.30
2022-09-28T19:46:56.026Z,91.30
2022-09-28T19:49:24.009Z,91.40
2022-09-28T19:54:57.047Z,91.20
2022-09-28T19:57:24.969Z,91.30
2022-09-28T19:59:53.754Z,91.10
2022-09-28T20:02:21.870Z,91.40
2022-09-28T20:04:48.995Z,91.20
2022-09-28T20:07:15.745Z,91.10
2022-09-28T20:09:42.445Z,91.10
2022-09-28T20:12:09.595Z,90.90
2022-09-28T20:14:38.210Z,91.20
2022-09-28T20:17:07.110Z,91.40
2022-09-28T20:19:35.107Z,91.20
2022-09-28T20:22:03.143Z,91.00
2022-09-28T20:24:31.388Z,91.40
2022-09-28T20:26:58.757Z,91.30
2022-09-28T20:29:25.614Z,91.20
2022-09-28T20:31:52.348Z,91.40
2022-09-28T20:34:19.181Z,91.00
2022-09-28T20:36:45.896Z,91.20
2022-09-28T20:39:13.414Z,91.40
2022-09-28T20:41:40.389Z,91.40
2022-09-28T20:44:07.479Z,91.40
2022-09-28T20:46:35.084Z,91.30
2022-09-28T20:49:02.136Z,91.40
2022-09-28T20:51:28.828Z,91.30
2022-09-28T20:53:56.201Z,91.20
2022-09-28T20:56:27.550Z,90.90
2022-09-28T20:58:54.749Z,91.40
2022-09-28T21:01:22.834Z,91.10
2022-09-28T21:03:51.684Z,91.00
2022-09-28T21:06:19.333Z,91.30
2022-09-28T21:08:46.351Z,91.10
2022-09-28T21:11:17.799Z,91.20
2022-09-28T21:13:44.845Z,91.20
2022-09-28T21:16:12.439Z,91.10
2022-09-28T21:18:39.671Z,91.20
2022-09-28T21:21:07.316Z,91.40
2022-09-28T21:23:34.490Z,91.40
2022-09-28T21:26:05.720Z,91.40
2022-09-28T21:28:32.691Z,91.20
2022-09-28T21:30:59.661Z,91.20
2022-09-28T21:33:26.584Z,91.50
2022-09-28T21:35:53.373Z,91.30
2022-09-28T21:38:20.099Z,91.30
2022-09-28T21:40:47.256Z,91.40
2022-09-28T21:43:13.975Z,91.20
2022-09-28T21:45:40.745Z,91.40
2022-09-28T21:48:07.538Z,91.10
2022-09-28T21:50:34.245Z,91.50
2022-09-28T21:53:03.284Z,91.40
2022-09-28T21:55:30.160Z,91.50
2022-09-28T21:57:56.947Z,91.50
2022-09-28T22:00:23.771Z,91.60
2022-09-28T22:02:51.099Z,91.70
2022-09-28T22:05:18.015Z,91.40
2022-09-28T22:07:44.942Z,91.10
2022-09-28T22:10:13.737Z,91.50
2022-09-28T22:12:40.480Z,91.60
2022-09-28T22:15:07.494Z,91.40
2022-09-28T22:17:34.233Z,91.50
2022-09-28T22:20:01.067Z,91.20
2022-09-28T22:22:29.280Z,91.50
2022-09-28T22:24:56.260Z,91.40
2022-09-28T22:27:24.065Z,91.50
2022-09-28T22:29:51.162Z,91.30
2022-09-28T22:32:18.027Z,91.30
2022-09-28T22:34:44.702Z,91.40
2022-09-28T22:37:11.380Z,91.60
2022-09-28T22:39:41.107Z,91.50
2022-09-28T22:42:08.296Z,91.30
2022-09-28T22:44:35.889Z,91.50
2022-09-28T22:47:03.265Z,91.20
2022-09-28T22:49:29.991Z,91.30
2022-09-28T22:51:56.785Z,91.40
2022-09-28T22:54:23.600Z,91.40
2022-09-28T22:56:50.280Z,91.50
2022-09-28T22:59:17.335Z,91.40
2022-09-28T23:01:44.183Z,91.50
2022-09-28T23:04:10.925Z,91.50
2022-09-28T23:06:37.619Z,91.70
2022-09-28T23:09:04.471Z,91.40
2022-09-28T23:11:31.236Z,91.50
2022-09-28T23:13:58.850Z,91.60
2022-09-28T23:16:26.894Z,91.50
2022-09-28T23:18:54.675Z,91.40
2022-09-28T23:21:22.803Z,91.40
2022-09-28T23:23:54.457Z,91.50
2022-09-28T23:26:25.705Z,91.30
2022-09-28T23:28:53.028Z,91.50
2022-09-28T23:31:24.226Z,91.30
2022-09-28T23:33:51.114Z,91.40
2022-09-28T23:36:18.096Z,91.40
2022-09-28T23:38:44.887Z,91.30
2022-09-28T23:41:11.732Z,91.20
2022-09-28T23:43:38.474Z,91.30
2022-09-28T23:46:05.369Z,91.50
2022-09-28T23:48:32.199Z,91.40
2022-09-28T23:50:58.940Z,91.30
2022-09-28T23:53:25.981Z,91.40
2022-09-28T23:55:52.751Z,91.30
2022-09-28T23:58:19.510Z,91.30
